Abernathy Field


Codes: KGZS/
Name: Abernathy Field
City: Pulaski
Country: United States
Elevation: 685 ft.

Photos at Abernathy Field


   Photos courtesy of SpottingLog. You can add your own sightings and photos by signing up for a free trial today.



No photos found.

Weather at Abernathy Field


Time (UTC)DescriptionTempratureWindCloud coverageVisibilityPressureHumidity
18-Apr-2024 00:00Light Rain23°C7 mph, SW83%10000m1016hPa90%
18-Apr-2024 03:00Overcast Clouds20°C4 mph, SW88%10000m1017hPa94%
18-Apr-2024 06:00Overcast Clouds17°C2 mph, SE95%10000m1018hPa97%
18-Apr-2024 09:00Few Clouds17°C4 mph, S19%10000m1018hPa98%
18-Apr-2024 12:00Few Clouds17°C4 mph, S20%10000m1019hPa98%
18-Apr-2024 15:00Scattered Clouds23°C9 mph, S26%10000m1018hPa81%
18-Apr-2024 18:00Few Clouds26°C9 mph, S19%10000m1016hPa61%
18-Apr-2024 21:00Light Rain26°C9 mph, SW24%9999m1014hPa68%
19-Apr-2024 00:00Moderate Rain21°C9 mph, SW55%10000m1014hPa86%
19-Apr-2024 03:00Moderate Rain19°C7 mph, SW95%10000m1015hPa96%
19-Apr-2024 06:00Light Rain18°C9 mph, SW95%7695m1014hPa96%
19-Apr-2024 09:00Light Rain19°C11 mph, SW100%10000m1014hPa97%
19-Apr-2024 12:00Light Rain18°C4 mph, SW100%10000m1016hPa98%
19-Apr-2024 15:00Light Rain16°C11 mph, N100%10000m1018hPa96%
19-Apr-2024 18:00Overcast Clouds18°C9 mph, N97%10000m1018hPa84%
19-Apr-2024 21:00Overcast Clouds18°C9 mph, N98%10000m1018hPa81%
20-Apr-2024 00:00Overcast Clouds17°C7 mph, N99%10000m1019hPa83%
20-Apr-2024 03:00Overcast Clouds16°C7 mph, NE100%10000m1020hPa82%
20-Apr-2024 06:00Overcast Clouds15°C11 mph, N100%10000m1019hPa75%
20-Apr-2024 09:00Overcast Clouds12°C9 mph, N100%10000m1019hPa74%
20-Apr-2024 12:00Overcast Clouds10°C9 mph, N100%10000m1021hPa80%
20-Apr-2024 15:00Overcast Clouds13°C11 mph, N100%10000m1023hPa67%
20-Apr-2024 18:00Overcast Clouds15°C11 mph, N100%10000m1022hPa63%
20-Apr-2024 21:00Overcast Clouds16°C11 mph, N99%10000m1020hPa57%
21-Apr-2024 00:00Overcast Clouds15°C7 mph, N98%10000m1020hPa70%
21-Apr-2024 03:00Overcast Clouds13°C9 mph, NE100%10000m1021hPa70%
21-Apr-2024 06:00Overcast Clouds12°C9 mph, NE100%10000m1020hPa69%
21-Apr-2024 09:00Overcast Clouds11°C11 mph, NE100%10000m1020hPa66%
21-Apr-2024 12:00Light Rain9°C9 mph, NE100%10000m1021hPa76%
21-Apr-2024 15:00Light Rain10°C9 mph, N100%10000m1022hPa77%
21-Apr-2024 18:00Light Rain11°C9 mph, N100%10000m1020hPa77%
21-Apr-2024 21:00Light Rain11°C4 mph, N100%10000m1019hPa74%
22-Apr-2024 00:00Overcast Clouds10°C9 mph, N100%10000m1019hPa73%
22-Apr-2024 03:00Broken Clouds7°C7 mph, N83%10000m1020hPa82%
22-Apr-2024 06:00Broken Clouds6°C7 mph, N61%10000m1020hPa87%
22-Apr-2024 09:00Clear Sky5°C7 mph, N8%10000m1020hPa89%
22-Apr-2024 12:00Scattered Clouds6°C7 mph, N29%10000m1021hPa85%
22-Apr-2024 15:00Clear Sky12°C9 mph, N3%10000m1020hPa63%
22-Apr-2024 18:00Clear Sky15°C7 mph, NW4%10000m1019hPa53%
22-Apr-2024 21:00Scattered Clouds16°C7 mph, N29%10000m1017hPa51%